createdAt,value
2022-09-27T00:00:27.416Z,11.19
2022-09-27T00:01:02.935Z,11.17
2022-09-27T00:01:38.493Z,11.14
2022-09-27T00:02:13.735Z,11.16
2022-09-27T00:02:48.924Z,11.25
2022-09-27T00:03:23.907Z,11.20
2022-09-27T00:03:59.092Z,11.17
2022-09-27T00:04:34.484Z,11.17
2022-09-27T00:05:09.979Z,11.14
2022-09-27T00:05:45.163Z,11.16
2022-09-27T00:06:20.365Z,11.10
2022-09-27T00:06:55.370Z,11.11
2022-09-27T00:07:30.771Z,11.24
2022-09-27T00:08:06.158Z,11.20
2022-09-27T00:08:41.368Z,11.16
2022-09-27T00:09:16.695Z,11.20
2022-09-27T00:09:51.947Z,11.17
2022-09-27T00:10:27.145Z,11.21
2022-09-27T00:11:02.555Z,11.21
2022-09-27T00:11:37.500Z,11.20
2022-09-27T00:12:12.584Z,11.16
2022-09-27T00:12:47.692Z,11.19
2022-09-27T00:13:22.889Z,11.14
2022-09-27T00:13:58.416Z,11.21
2022-09-27T00:14:33.808Z,11.16
2022-09-27T00:15:09.124Z,11.20
2022-09-27T00:15:44.444Z,11.16
2022-09-27T00:16:19.571Z,11.17
2022-09-27T00:16:54.871Z,11.14
2022-09-27T00:17:30.248Z,11.14
2022-09-27T00:18:05.841Z,11.13
2022-09-27T00:18:41.326Z,11.11
2022-09-27T00:19:16.736Z,11.13
2022-09-27T00:19:51.829Z,11.17
2022-09-27T00:20:26.829Z,11.14
2022-09-27T00:21:01.931Z,11.11
2022-09-27T00:21:37.238Z,11.13
2022-09-27T00:22:12.618Z,11.14
2022-09-27T00:22:48.111Z,11.19
2022-09-27T00:23:23.415Z,11.17
2022-09-27T00:23:58.923Z,11.13
2022-09-27T00:24:34.336Z,11.10
2022-09-27T00:25:09.315Z,11.13
2022-09-27T00:25:44.309Z,11.06
2022-09-27T00:26:19.709Z,11.10
2022-09-27T00:26:54.794Z,11.11
2022-09-27T00:27:29.802Z,10.98
2022-09-27T00:28:04.998Z,11.09
2022-09-27T00:28:40.394Z,11.10
2022-09-27T00:29:15.752Z,11.07
2022-09-27T00:29:50.991Z,11.17
2022-09-27T00:30:26.083Z,11.16
2022-09-27T00:31:01.352Z,11.16
2022-09-27T00:31:36.761Z,11.10
2022-09-27T00:32:11.808Z,11.14
2022-09-27T00:32:47.399Z,11.19
2022-09-27T00:33:22.483Z,11.11
2022-09-27T00:33:57.589Z,11.16
2022-09-27T00:34:32.885Z,11.02
2022-09-27T00:35:07.976Z,10.99
2022-09-27T00:35:43.390Z,11.01
2022-09-27T00:36:18.568Z,11.03
2022-09-27T00:36:53.679Z,11.16
2022-09-27T00:37:28.964Z,11.16
2022-09-27T00:38:04.454Z,10.99
2022-09-27T00:38:39.728Z,11.06
2022-09-27T00:39:15.185Z,11.09
2022-09-27T00:39:50.131Z,11.13
2022-09-27T00:40:25.282Z,11.19
2022-09-27T00:41:00.393Z,11.07
2022-09-27T00:41:35.543Z,11.06
2022-09-27T00:42:10.849Z,11.11
2022-09-27T00:42:45.956Z,11.14
2022-09-27T00:43:20.970Z,11.16
2022-09-27T00:43:55.943Z,11.03
2022-09-27T00:44:31.250Z,11.11
2022-09-27T00:45:06.354Z,11.03
2022-09-27T00:45:41.639Z,11.03
2022-09-27T00:46:16.788Z,11.07
2022-09-27T00:46:52.054Z,11.02
2022-09-27T00:47:27.574Z,11.13
2022-09-27T00:48:02.666Z,10.98
2022-09-27T00:48:37.871Z,11.02
2022-09-27T00:49:13.515Z,10.98
2022-09-27T00:49:48.679Z,11.06
2022-09-27T00:50:23.999Z,10.98
2022-09-27T00:50:59.294Z,11.01
2022-09-27T00:51:34.527Z,11.07
2022-09-27T00:52:09.809Z,11.01
2022-09-27T00:52:44.706Z,11.02
2022-09-27T00:53:20.014Z,11.03
2022-09-27T00:53:55.327Z,11.02
2022-09-27T00:54:30.752Z,11.07
2022-09-27T00:55:05.658Z,10.99
2022-09-27T00:55:40.754Z,11.07
2022-09-27T00:56:16.055Z,11.06
2022-09-27T00:56:51.166Z,10.99
2022-09-27T00:57:26.272Z,11.06
2022-09-27T00:58:01.740Z,11.01
2022-09-27T00:58:36.923Z,11.01
2022-09-27T00:59:12.132Z,11.01
2022-09-27T00:59:47.322Z,11.07
2022-09-27T01:00:22.526Z,11.03
2022-09-27T01:00:58.001Z,11.06
2022-09-27T01:01:33.306Z,11.14
2022-09-27T01:02:08.378Z,11.11
2022-09-27T01:02:43.873Z,10.99
2022-09-27T01:03:18.837Z,11.03
2022-09-27T01:03:53.941Z,11.02
2022-09-27T01:04:28.936Z,11.03
2022-09-27T01:05:03.958Z,10.99
2022-09-27T01:05:39.257Z,10.91
2022-09-27T01:06:14.371Z,10.92
2022-09-27T01:06:49.660Z,11.07
2022-09-27T01:07:24.751Z,10.95
2022-09-27T01:08:00.248Z,11.03
2022-09-27T01:08:35.644Z,11.01
2022-09-27T01:09:10.730Z,11.01
2022-09-27T01:09:45.561Z,10.91
2022-09-27T01:10:20.668Z,10.99
2022-09-27T01:10:55.870Z,11.07
2022-09-27T01:11:31.503Z,11.01
2022-09-27T01:12:06.697Z,11.01
2022-09-27T01:12:41.996Z,11.03
2022-09-27T01:13:17.177Z,10.98
2022-09-27T01:13:52.700Z,10.95
2022-09-27T01:14:28.012Z,10.94
2022-09-27T01:15:03.126Z,10.94
2022-09-27T01:15:38.367Z,11.09
2022-09-27T01:16:13.467Z,11.03
2022-09-27T01:16:48.936Z,11.01
2022-09-27T01:17:24.118Z,11.01
2022-09-27T01:17:59.346Z,10.99
2022-09-27T01:18:34.642Z,10.92
2022-09-27T01:19:11.268Z,10.95
2022-09-27T01:19:46.624Z,10.99
2022-09-27T01:20:21.921Z,11.01
2022-09-27T01:20:57.410Z,10.98
2022-09-27T01:21:32.539Z,10.94
2022-09-27T01:22:07.677Z,10.98
2022-09-27T01:22:43.064Z,10.98
2022-09-27T01:23:18.456Z,10.96
2022-09-27T01:23:53.458Z,10.98
2022-09-27T01:24:28.778Z,10.89
2022-09-27T01:25:03.984Z,11.02
2022-09-27T01:25:39.155Z,10.95
2022-09-27T01:26:14.448Z,10.96
2022-09-27T01:26:50.267Z,11.03
2022-09-27T01:27:25.447Z,11.02
2022-09-27T01:28:00.637Z,11.07
2022-09-27T01:28:35.541Z,10.95
2022-09-27T01:29:10.784Z,10.89
2022-09-27T01:29:46.144Z,10.89
2022-09-27T01:30:21.159Z,10.92
2022-09-27T01:30:56.268Z,10.98
2022-09-27T01:31:31.361Z,10.94
2022-09-27T01:32:06.602Z,10.95
2022-09-27T01:32:42.052Z,10.94
2022-09-27T01:33:17.105Z,10.92
2022-09-27T01:33:52.224Z,10.86
2022-09-27T01:34:27.533Z,10.86
2022-09-27T01:35:03.035Z,10.83
2022-09-27T01:35:38.337Z,10.80
2022-09-27T01:36:13.741Z,10.86
2022-09-27T01:36:48.856Z,10.86
2022-09-27T01:37:23.942Z,10.86
2022-09-27T01:37:59.161Z,10.77
2022-09-27T01:38:34.679Z,10.83
2022-09-27T01:39:10.179Z,10.83
2022-09-27T01:39:45.498Z,10.84
2022-09-27T01:40:20.741Z,10.83
2022-09-27T01:40:55.933Z,10.80
2022-09-27T01:41:31.100Z,10.83
2022-09-27T01:42:07.664Z,10.84
2022-09-27T01:42:41.434Z,10.81
2022-09-27T01:43:16.751Z,10.74
2022-09-27T01:43:51.978Z,10.74
2022-09-27T01:44:27.285Z,10.74
2022-09-27T01:45:02.283Z,10.80
2022-09-27T01:45:37.496Z,10.76
2022-09-27T01:46:12.972Z,10.70
2022-09-27T01:46:48.512Z,10.74
2022-09-27T01:47:23.714Z,10.73
2022-09-27T01:47:58.824Z,10.70
2022-09-27T01:48:33.918Z,10.77
2022-09-27T01:49:08.928Z,10.80
2022-09-27T01:49:44.089Z,10.77
2022-09-27T01:50:19.399Z,10.78
2022-09-27T01:50:54.599Z,10.74
2022-09-27T01:51:30.227Z,10.73
2022-09-27T01:52:05.398Z,10.71
2022-09-27T01:52:40.606Z,10.74
2022-09-27T01:53:15.742Z,10.73
2022-09-27T01:53:50.830Z,10.78
2022-09-27T01:54:26.139Z,10.73
2022-09-27T01:55:01.334Z,10.74
2022-09-27T01:55:36.359Z,10.73
2022-09-27T01:56:11.542Z,10.76
2022-09-27T01:56:46.655Z,10.80
2022-09-27T01:57:21.666Z,10.76
2022-09-27T01:57:56.875Z,10.77
2022-09-27T01:58:32.140Z,10.80
2022-09-27T01:59:07.130Z,10.74
2022-09-27T01:59:42.355Z,10.68
2022-09-27T02:00:17.841Z,10.73
2022-09-27T02:00:52.950Z,10.76
2022-09-27T02:01:28.355Z,10.74
2022-09-27T02:02:03.358Z,10.76
2022-09-27T02:02:39.194Z,10.81
2022-09-27T02:03:14.343Z,10.73
2022-09-27T02:03:49.451Z,10.74
2022-09-27T02:04:24.381Z,10.74
2022-09-27T02:04:59.495Z,10.73
2022-09-27T02:05:34.904Z,10.73
2022-09-27T02:06:11.686Z,10.73
2022-09-27T02:06:44.989Z,10.63
2022-09-27T02:07:20.215Z,10.73
2022-09-27T02:07:55.309Z,10.73
2022-09-27T02:08:30.514Z,10.68
2022-09-27T02:09:05.508Z,10.68
2022-09-27T02:09:40.813Z,10.65
2022-09-27T02:10:15.822Z,10.71
2022-09-27T02:10:51.126Z,10.63
2022-09-27T02:11:26.256Z,10.62
2022-09-27T02:12:01.445Z,10.63
2022-09-27T02:12:36.508Z,10.63
2022-09-27T02:13:11.714Z,10.70
2022-09-27T02:13:47.011Z,10.66
2022-09-27T02:14:22.405Z,10.65
2022-09-27T02:14:57.520Z,10.66
2022-09-27T02:15:32.620Z,10.60
2022-09-27T02:16:07.925Z,10.59
2022-09-27T02:16:42.803Z,10.65
2022-09-27T02:17:18.212Z,10.63
2022-09-27T02:17:53.517Z,10.68
2022-09-27T02:18:28.720Z,10.70
2022-09-27T02:19:04.031Z,10.68
2022-09-27T02:19:39.066Z,10.68
2022-09-27T02:20:13.942Z,10.70
2022-09-27T02:20:49.460Z,10.63
2022-09-27T02:21:24.573Z,10.65
2022-09-27T02:21:59.676Z,10.59
2022-09-27T02:22:34.902Z,10.58
2022-09-27T02:23:10.011Z,10.62
2022-09-27T02:23:45.213Z,10.59
2022-09-27T02:24:20.411Z,10.63
2022-09-27T02:24:55.601Z,10.65
2022-09-27T02:25:30.803Z,10.70
2022-09-27T02:26:06.005Z,10.59
2022-09-27T02:26:41.207Z,10.62
2022-09-27T02:27:16.460Z,10.70
2022-09-27T02:27:51.964Z,10.58
2022-09-27T02:28:27.062Z,10.56
2022-09-27T02:29:02.580Z,10.70
2022-09-27T02:29:37.567Z,10.62
2022-09-27T02:30:13.175Z,10.60
2022-09-27T02:30:48.306Z,10.59
2022-09-27T02:31:23.228Z,10.59
2022-09-27T02:31:58.466Z,10.65
2022-09-27T02:32:33.878Z,10.63
2022-09-27T02:33:08.791Z,10.60
2022-09-27T02:33:44.172Z,10.55
2022-09-27T02:34:19.282Z,10.60
2022-09-27T02:34:54.444Z,10.59
2022-09-27T02:35:29.467Z,10.62
2022-09-27T02:36:04.561Z,10.55
2022-09-27T02:36:39.884Z,10.60
2022-09-27T02:37:15.106Z,10.65
2022-09-27T02:37:50.301Z,10.56
2022-09-27T02:38:25.411Z,10.62
2022-09-27T02:39:00.587Z,10.68
2022-09-27T02:39:36.094Z,10.60
2022-09-27T02:40:11.280Z,10.56
2022-09-27T02:40:47.067Z,10.55
2022-09-27T02:41:22.291Z,10.62
2022-09-27T02:41:57.405Z,10.59
2022-09-27T02:42:32.614Z,10.59
2022-09-27T02:43:08.013Z,10.70
2022-09-27T02:43:43.326Z,10.60
2022-09-27T02:44:18.526Z,10.62
2022-09-27T02:44:53.541Z,10.65
2022-09-27T02:45:28.860Z,10.65
2022-09-27T02:46:04.265Z,10.65
2022-09-27T02:46:39.533Z,10.62
2022-09-27T02:47:14.834Z,10.65
2022-09-27T02:47:49.942Z,10.60
2022-09-27T02:48:25.021Z,10.55
2022-09-27T02:49:00.322Z,10.65
2022-09-27T02:49:35.642Z,10.47
2022-09-27T02:50:10.839Z,10.53
2022-09-27T02:50:46.143Z,10.59
2022-09-27T02:51:21.968Z,10.55
2022-09-27T02:51:57.077Z,10.60
2022-09-27T02:52:32.565Z,10.60
2022-09-27T02:53:07.663Z,10.63
2022-09-27T02:53:42.769Z,10.56
2022-09-27T02:54:18.070Z,10.52
2022-09-27T02:54:53.273Z,10.63
2022-09-27T02:55:28.376Z,10.63
2022-09-27T02:56:03.580Z,10.63
2022-09-27T02:56:38.790Z,10.55
2022-09-27T02:57:13.812Z,10.59
2022-09-27T02:57:49.119Z,10.63
2022-09-27T02:58:24.734Z,10.56
2022-09-27T02:58:59.712Z,10.53
2022-09-27T02:59:34.827Z,10.53
2022-09-27T03:00:10.062Z,10.53
2022-09-27T03:00:45.221Z,10.55
2022-09-27T03:01:20.686Z,10.60
2022-09-27T03:01:56.039Z,10.58
2022-09-27T03:02:31.243Z,10.60
2022-09-27T03:03:06.236Z,10.46
2022-09-27T03:03:41.299Z,10.60
2022-09-27T03:04:16.507Z,10.60
2022-09-27T03:04:51.733Z,10.55
2022-09-27T03:05:26.945Z,10.58
2022-09-27T03:06:02.460Z,10.53
2022-09-27T03:06:37.922Z,10.47
2022-09-27T03:07:13.233Z,10.55
2022-09-27T03:07:48.435Z,10.51
2022-09-27T03:08:23.727Z,10.56
2022-09-27T03:08:59.033Z,10.56
2022-09-27T03:09:34.525Z,10.51
2022-09-27T03:10:10.431Z,10.51
2022-09-27T03:10:45.640Z,10.51
2022-09-27T03:11:20.641Z,10.55
2022-09-27T03:11:55.632Z,10.56
2022-09-27T03:12:31.126Z,10.59
2022-09-27T03:13:06.410Z,10.52
2022-09-27T03:14:06.899Z,10.53
2022-09-27T03:14:17.533Z,10.52
2022-09-27T03:14:52.948Z,10.55
2022-09-27T03:15:28.370Z,10.52
2022-09-27T03:16:03.382Z,10.55
2022-09-27T03:16:38.608Z,10.58
2022-09-27T03:17:13.850Z,10.51
2022-09-27T03:17:48.882Z,10.53
2022-09-27T03:18:24.595Z,10.56
2022-09-27T03:19:00.092Z,10.52
2022-09-27T03:19:35.205Z,10.43
2022-09-27T03:20:10.505Z,10.47
2022-09-27T03:20:45.907Z,10.40
2022-09-27T03:21:21.330Z,10.33
2022-09-27T03:21:56.624Z,10.42
2022-09-27T03:22:31.846Z,10.43
2022-09-27T03:23:07.332Z,10.40
2022-09-27T03:23:42.465Z,10.42
2022-09-27T03:24:17.772Z,10.40
2022-09-27T03:24:52.809Z,10.37
2022-09-27T03:25:27.820Z,10.40
2022-09-27T03:26:03.246Z,10.39
2022-09-27T03:26:38.886Z,10.33
2022-09-27T03:27:14.088Z,10.39
2022-09-27T03:27:49.437Z,10.34
2022-09-27T03:28:24.625Z,10.32
2022-09-27T03:29:00.005Z,10.37
2022-09-27T03:29:35.329Z,10.26
2022-09-27T03:30:10.337Z,10.21
2022-09-27T03:30:45.820Z,10.30
2022-09-27T03:31:21.061Z,10.28
2022-09-27T03:31:56.443Z,10.36
2022-09-27T03:32:31.645Z,10.25
2022-09-27T03:33:07.041Z,10.34
2022-09-27T03:33:41.919Z,10.34
2022-09-27T03:34:17.136Z,10.34
2022-09-27T03:34:52.353Z,10.30
2022-09-27T03:35:27.452Z,10.24
2022-09-27T03:36:02.906Z,10.22
2022-09-27T03:36:38.124Z,10.24
2022-09-27T03:37:13.246Z,10.22
2022-09-27T03:37:48.889Z,10.28
2022-09-27T03:38:23.993Z,10.28
2022-09-27T03:38:59.093Z,10.32
2022-09-27T03:39:34.189Z,10.22
2022-09-27T03:40:09.522Z,10.26
2022-09-27T03:40:44.742Z,10.30
2022-09-27T03:41:19.835Z,10.28
2022-09-27T03:41:55.447Z,10.33
2022-09-27T03:42:30.655Z,10.28
2022-09-27T03:43:05.448Z,10.30
2022-09-27T03:43:40.867Z,10.22
2022-09-27T03:44:16.062Z,10.26
2022-09-27T03:44:51.266Z,10.25
2022-09-27T03:45:26.589Z,10.30
2022-09-27T03:46:01.545Z,10.26
2022-09-27T03:46:36.643Z,10.25
2022-09-27T03:47:11.596Z,10.32
2022-09-27T03:47:47.011Z,10.33
2022-09-27T03:48:27.159Z,10.28
2022-09-27T03:48:57.430Z,10.33
2022-09-27T03:49:32.827Z,10.36
2022-09-27T03:50:07.846Z,10.30
2022-09-27T03:50:42.974Z,10.24
2022-09-27T03:51:18.597Z,10.26
2022-09-27T03:51:53.631Z,10.32
2022-09-27T03:52:29.337Z,10.34
2022-09-27T03:53:04.752Z,10.33
2022-09-27T03:53:40.143Z,10.28
2022-09-27T03:54:15.366Z,10.22
2022-09-27T03:54:50.587Z,10.21
2022-09-27T03:55:25.601Z,10.24
2022-09-27T03:56:00.501Z,10.28
2022-09-27T03:56:35.523Z,10.30
2022-09-27T03:57:10.850Z,10.30
2022-09-27T03:57:46.061Z,10.32
2022-09-27T03:58:21.373Z,10.25
2022-09-27T03:58:56.573Z,10.25
2022-09-27T03:59:31.776Z,10.25
2022-09-27T04:00:06.809Z,10.22
2022-09-27T04:00:41.815Z,10.22
2022-09-27T04:01:17.085Z,10.33
2022-09-27T04:01:52.199Z,10.22
2022-09-27T04:02:27.733Z,10.25
2022-09-27T04:03:02.763Z,10.19
2022-09-27T04:03:38.212Z,10.17
2022-09-27T04:04:13.284Z,10.15
2022-09-27T04:04:48.495Z,10.10
2022-09-27T04:05:23.817Z,10.06
2022-09-27T04:05:58.953Z,10.06
2022-09-27T04:06:34.048Z,10.12
2022-09-27T04:07:09.529Z,10.07
2022-09-27T04:07:44.756Z,10.01
2022-09-27T04:08:19.766Z,10.12
2022-09-27T04:08:54.983Z,10.06
2022-09-27T04:09:30.017Z,9.99
2022-09-27T04:10:05.590Z,10.03
2022-09-27T04:10:40.910Z,10.09
2022-09-27T04:11:16.008Z,10.06
2022-09-27T04:11:51.131Z,10.06
2022-09-27T04:12:26.332Z,10.06
2022-09-27T04:13:01.663Z,10.00
2022-09-27T04:13:36.865Z,10.01
2022-09-27T04:14:11.967Z,10.03
2022-09-27T04:14:47.484Z,10.09
2022-09-27T04:15:22.680Z,10.04
2022-09-27T04:15:57.895Z,10.04
2022-09-27T04:16:33.065Z,10.03
2022-09-27T04:17:08.483Z,10.04
2022-09-27T04:17:43.525Z,10.00
2022-09-27T04:18:18.755Z,9.96
2022-09-27T04:18:54.068Z,9.94
2022-09-27T04:19:29.297Z,10.01
2022-09-27T04:20:04.310Z,9.97
2022-09-27T04:20:39.318Z,10.04
2022-09-27T04:21:14.511Z,10.03
2022-09-27T04:21:49.832Z,9.93
2022-09-27T04:22:25.029Z,10.01
2022-09-27T04:23:00.246Z,9.96
2022-09-27T04:23:35.334Z,10.04
2022-09-27T04:24:10.752Z,10.04
2022-09-27T04:24:46.164Z,10.03
2022-09-27T04:25:21.187Z,9.97
2022-09-27T04:25:56.413Z,9.96
2022-09-27T04:26:31.925Z,10.01
2022-09-27T04:27:07.042Z,9.97
2022-09-27T04:27:42.365Z,9.93
2022-09-27T04:28:17.766Z,9.97
2022-09-27T04:28:54.726Z,9.94
2022-09-27T04:29:28.278Z,9.97
2022-09-27T04:30:03.597Z,9.97
2022-09-27T04:30:38.735Z,9.97
2022-09-27T04:31:13.917Z,9.93
2022-09-27T04:31:49.190Z,10.01
2022-09-27T04:32:24.472Z,9.91
2022-09-27T04:32:59.681Z,9.94
2022-09-27T04:33:35.056Z,9.94
2022-09-27T04:34:09.945Z,9.99
2022-09-27T04:34:46.161Z,9.93
2022-09-27T04:35:20.737Z,9.89
2022-09-27T04:35:56.051Z,9.86
2022-09-27T04:36:31.477Z,10.00
2022-09-27T04:37:06.682Z,9.86
2022-09-27T04:37:42.193Z,9.85
2022-09-27T04:38:17.391Z,9.89
2022-09-27T04:38:52.780Z,9.83
2022-09-27T04:39:27.957Z,9.86
2022-09-27T04:40:03.505Z,9.79
2022-09-27T04:40:38.753Z,9.79
2022-09-27T04:41:13.900Z,9.78
2022-09-27T04:41:49.059Z,9.75
2022-09-27T04:42:24.357Z,9.79
2022-09-27T04:42:59.462Z,9.78
2022-09-27T04:43:34.974Z,9.81
2022-09-27T04:44:10.369Z,9.78
2022-09-27T04:44:45.385Z,9.67
2022-09-27T04:45:21.067Z,9.78
2022-09-27T04:45:56.507Z,9.66
2022-09-27T04:46:32.191Z,9.75
2022-09-27T04:47:42.394Z,9.67
2022-09-27T04:48:17.686Z,9.76
2022-09-27T04:48:53.290Z,9.58
2022-09-27T04:49:28.383Z,9.68
2022-09-27T04:50:03.606Z,9.71
2022-09-27T04:50:38.808Z,9.68
2022-09-27T04:51:13.992Z,9.70
2022-09-27T04:51:49.318Z,9.67
2022-09-27T04:52:24.607Z,9.66
2022-09-27T04:52:59.915Z,9.68
2022-09-27T04:53:35.109Z,9.70
2022-09-27T04:54:10.314Z,9.76
2022-09-27T04:54:45.528Z,9.68
2022-09-27T04:55:20.515Z,9.67
2022-09-27T04:55:55.610Z,9.66
2022-09-27T04:56:30.859Z,9.63
2022-09-27T04:57:06.172Z,9.64
2022-09-27T04:57:41.656Z,9.64
2022-09-27T04:58:16.720Z,9.64
2022-09-27T04:58:51.918Z,9.57
2022-09-27T04:59:26.819Z,9.61
2022-09-27T05:00:02.026Z,9.61
2022-09-27T05:00:37.365Z,9.53
2022-09-27T05:01:12.597Z,9.63
2022-09-27T05:01:47.724Z,9.57
2022-09-27T05:02:23.130Z,9.60
2022-09-27T05:02:58.355Z,9.52
2022-09-27T05:03:33.381Z,9.63
2022-09-27T05:04:08.577Z,9.50
2022-09-27T05:04:43.793Z,9.56
2022-09-27T05:05:19.114Z,9.49
2022-09-27T05:05:54.395Z,9.46
2022-09-27T05:06:29.510Z,9.50
2022-09-27T05:07:04.697Z,9.53
2022-09-27T05:07:40.228Z,9.50
2022-09-27T05:08:15.739Z,9.49
2022-09-27T05:08:51.214Z,9.49
2022-09-27T05:09:26.101Z,9.52
2022-09-27T05:10:01.668Z,9.52
2022-09-27T05:10:36.774Z,9.53
2022-09-27T05:11:12.056Z,9.53
2022-09-27T05:11:47.386Z,9.50
2022-09-27T05:12:22.675Z,9.50
2022-09-27T05:12:57.981Z,9.48
2022-09-27T05:13:33.394Z,9.56
2022-09-27T05:14:08.306Z,9.56
2022-09-27T05:14:43.508Z,9.49
2022-09-27T05:15:18.504Z,9.57
2022-09-27T05:15:54.044Z,9.52
2022-09-27T05:16:30.877Z,9.57
2022-09-27T05:17:03.780Z,9.48
2022-09-27T05:17:38.962Z,9.49
2022-09-27T05:18:14.153Z,9.56
2022-09-27T05:18:49.465Z,9.53
2022-09-27T05:19:24.391Z,9.50
2022-09-27T05:19:59.477Z,9.48
2022-09-27T05:20:34.487Z,9.52
2022-09-27T05:21:09.679Z,9.56
2022-09-27T05:21:44.915Z,9.60
2022-09-27T05:22:20.407Z,9.56
2022-09-27T05:22:55.719Z,9.56
2022-09-27T05:23:30.811Z,9.53
2022-09-27T05:24:06.558Z,9.57
2022-09-27T05:24:41.973Z,9.58
2022-09-27T05:25:16.856Z,9.60
2022-09-27T05:25:52.177Z,9.52
2022-09-27T05:26:27.572Z,9.56
2022-09-27T05:27:02.978Z,9.64
2022-09-27T05:27:38.427Z,9.58
2022-09-27T05:28:13.814Z,9.63
2022-09-27T05:28:49.398Z,9.56
2022-09-27T05:29:24.796Z,9.57
2022-09-27T05:30:00.014Z,9.61
2022-09-27T05:30:35.340Z,9.61
2022-09-27T05:31:10.362Z,9.61
2022-09-27T05:31:45.833Z,9.64
2022-09-27T05:32:21.518Z,9.63
2022-09-27T05:32:56.831Z,9.63
2022-09-27T05:33:32.334Z,9.60
2022-09-27T05:34:07.420Z,9.66
2022-09-27T05:34:42.729Z,9.58
2022-09-27T05:35:18.008Z,9.68
2022-09-27T05:35:53.225Z,9.60
2022-09-27T05:36:28.435Z,9.63
2022-09-27T05:37:03.843Z,9.53
2022-09-27T05:37:39.039Z,9.68
2022-09-27T05:38:14.536Z,9.66
2022-09-27T05:38:49.776Z,9.68
2022-09-27T05:39:25.184Z,9.61
2022-09-27T05:40:08.487Z,9.63
2022-09-27T05:40:42.706Z,9.64
2022-09-27T05:41:10.718Z,9.63
2022-09-27T05:41:46.193Z,9.73
2022-09-27T05:42:21.158Z,9.68
2022-09-27T05:42:56.561Z,9.71
2022-09-27T05:43:31.867Z,9.63
2022-09-27T05:44:07.263Z,9.68
2022-09-27T05:44:42.678Z,9.75
2022-09-27T05:45:17.971Z,9.78
2022-09-27T05:45:53.324Z,9.60
2022-09-27T05:46:28.446Z,9.63
2022-09-27T05:47:03.638Z,9.60
2022-09-27T05:47:38.752Z,9.66
2022-09-27T05:48:14.254Z,9.64
2022-09-27T05:48:49.556Z,9.63
2022-09-27T05:49:24.856Z,9.64
2022-09-27T05:49:59.967Z,9.67
2022-09-27T05:50:35.544Z,9.63
2022-09-27T05:51:11.034Z,9.70
2022-09-27T05:51:46.364Z,9.70
2022-09-27T05:52:22.823Z,9.73
2022-09-27T05:52:56.820Z,9.75
2022-09-27T05:53:31.809Z,9.71
2022-09-27T05:54:07.116Z,9.75
2022-09-27T05:54:42.133Z,9.78
2022-09-27T05:55:17.542Z,9.73
2022-09-27T05:55:52.641Z,9.70
2022-09-27T05:56:27.843Z,9.70
2022-09-27T05:57:03.290Z,9.66
2022-09-27T05:57:38.924Z,9.66
2022-09-27T05:58:14.010Z,9.71
2022-09-27T05:58:49.041Z,9.73
2022-09-27T05:59:24.544Z,9.71
2022-09-27T06:00:00.249Z,9.66
2022-09-27T06:00:35.642Z,9.76
2022-09-27T06:01:10.690Z,9.68
2022-09-27T06:01:45.815Z,9.64
2022-09-27T06:02:21.198Z,9.73
2022-09-27T06:02:56.467Z,9.66
2022-09-27T06:03:31.494Z,9.66
2022-09-27T06:04:07.084Z,9.63
2022-09-27T06:04:42.170Z,9.78
2022-09-27T06:05:17.373Z,9.68
2022-09-27T06:05:52.685Z,9.76
2022-09-27T06:06:27.787Z,9.70
2022-09-27T06:07:03.106Z,9.71
2022-09-27T06:07:38.310Z,9.81
2022-09-27T06:08:13.747Z,9.73
2022-09-27T06:08:48.986Z,9.83
2022-09-27T06:09:23.954Z,9.78
2022-09-27T06:09:59.321Z,9.81
2022-09-27T06:10:34.217Z,9.89
2022-09-27T06:11:09.426Z,9.85
2022-09-27T06:11:45.277Z,9.88
2022-09-27T06:12:19.767Z,9.88
2022-09-27T06:12:55.286Z,9.85
2022-09-27T06:13:30.783Z,10.01
2022-09-27T06:14:05.979Z,9.86
2022-09-27T06:14:40.973Z,9.99
2022-09-27T06:15:16.479Z,9.96
2022-09-27T06:15:51.587Z,9.93
2022-09-27T06:16:26.730Z,10.00
2022-09-27T06:17:02.256Z,10.07
2022-09-27T06:17:37.606Z,9.93
2022-09-27T06:18:12.626Z,9.99
2022-09-27T06:18:47.935Z,9.93
2022-09-27T06:19:23.129Z,10.00
2022-09-27T06:19:58.873Z,10.04
2022-09-27T06:20:34.079Z,10.01
2022-09-27T06:21:09.276Z,9.96
2022-09-27T06:21:44.592Z,10.00
2022-09-27T06:22:19.793Z,10.07
2022-09-27T06:22:55.110Z,10.04
2022-09-27T06:23:30.513Z,10.01
2022-09-27T06:24:05.832Z,10.04
2022-09-27T06:24:41.330Z,10.04
2022-09-27T06:25:16.741Z,10.03
2022-09-27T06:25:51.960Z,10.10
2022-09-27T06:26:27.178Z,10.07
2022-09-27T06:27:02.474Z,10.01
2022-09-27T06:27:38.073Z,10.10
2022-09-27T06:28:13.090Z,10.17
2022-09-27T06:28:48.188Z,10.15
2022-09-27T06:29:23.309Z,10.17
2022-09-27T06:29:58.534Z,10.19
2022-09-27T06:30:33.899Z,10.22
2022-09-27T06:31:09.092Z,10.32
2022-09-27T06:31:44.177Z,10.22
2022-09-27T06:32:19.485Z,10.32
2022-09-27T06:32:54.792Z,10.28
2022-09-27T06:33:29.995Z,10.24
2022-09-27T06:34:05.284Z,10.30
2022-09-27T06:34:40.683Z,10.24
2022-09-27T06:35:15.985Z,10.39
2022-09-27T06:35:51.284Z,10.42
2022-09-27T06:36:26.649Z,10.34
2022-09-27T06:37:02.047Z,10.37
2022-09-27T06:37:37.445Z,10.37
2022-09-27T06:38:12.648Z,10.52
2022-09-27T06:38:47.857Z,10.40
2022-09-27T06:39:23.069Z,10.42
2022-09-27T06:39:58.391Z,10.40
2022-09-27T06:40:33.422Z,10.37
2022-09-27T06:41:08.706Z,10.40
2022-09-27T06:41:43.707Z,10.43
2022-09-27T06:42:19.131Z,10.37
2022-09-27T06:42:54.455Z,10.42
2022-09-27T06:43:29.550Z,10.39
2022-09-27T06:44:04.674Z,10.36
2022-09-27T06:44:39.776Z,10.37
2022-09-27T06:45:14.999Z,10.36
2022-09-27T06:45:50.316Z,10.44
2022-09-27T06:46:25.825Z,10.47
2022-09-27T06:47:00.922Z,10.46
2022-09-27T06:47:36.053Z,10.40
2022-09-27T06:48:11.452Z,10.51
2022-09-27T06:48:46.543Z,10.52
2022-09-27T06:49:21.764Z,10.51
2022-09-27T06:49:57.084Z,10.53
2022-09-27T06:50:32.483Z,10.52
2022-09-27T06:51:07.982Z,10.55
2022-09-27T06:51:43.176Z,10.56
2022-09-27T06:52:18.428Z,10.47
2022-09-27T06:52:53.629Z,10.40
2022-09-27T06:53:28.848Z,10.53
2022-09-27T06:54:03.756Z,10.52
2022-09-27T06:54:39.146Z,10.51
2022-09-27T06:55:14.640Z,10.52
2022-09-27T06:55:49.923Z,10.43
2022-09-27T06:56:25.230Z,10.51
2022-09-27T06:57:02.538Z,10.46
2022-09-27T06:57:36.318Z,10.39
2022-09-27T06:58:11.740Z,10.43
2022-09-27T06:58:47.048Z,10.42
2022-09-27T06:59:22.170Z,10.46
2022-09-27T06:59:57.693Z,10.44
2022-09-27T07:00:33.100Z,10.47
2022-09-27T07:01:08.278Z,10.42
2022-09-27T07:01:43.821Z,10.42
2022-09-27T07:02:18.979Z,10.42
2022-09-27T07:02:54.146Z,10.44
2022-09-27T07:03:33.551Z,10.47
2022-09-27T07:04:04.561Z,10.44
2022-09-27T07:04:39.854Z,10.53
2022-09-27T07:05:15.272Z,10.59
2022-09-27T07:05:50.369Z,10.62
2022-09-27T07:06:25.580Z,10.51
2022-09-27T07:07:00.921Z,10.60
2022-09-27T07:07:36.323Z,10.60
2022-09-27T07:08:11.485Z,10.70
2022-09-27T07:08:46.893Z,10.60
2022-09-27T07:09:22.108Z,10.55
2022-09-27T07:09:57.435Z,10.65
2022-09-27T07:10:32.634Z,10.62
2022-09-27T07:11:07.648Z,10.65
2022-09-27T07:11:42.953Z,10.63
2022-09-27T07:12:18.072Z,10.63
2022-09-27T07:12:53.527Z,10.58
2022-09-27T07:13:28.758Z,10.59
2022-09-27T07:14:03.964Z,10.70
2022-09-27T07:14:39.065Z,10.68
2022-09-27T07:15:14.477Z,10.74
2022-09-27T07:15:49.365Z,10.74
2022-09-27T07:16:24.802Z,10.84
2022-09-27T07:17:00.199Z,10.91
2022-09-27T07:17:35.376Z,10.86
2022-09-27T07:18:10.613Z,10.96
2022-09-27T07:18:46.122Z,11.01
2022-09-27T07:19:21.234Z,10.98
2022-09-27T07:19:56.557Z,11.02
2022-09-27T07:20:31.961Z,11.03
2022-09-27T07:21:07.370Z,11.03
2022-09-27T07:21:42.676Z,11.14
2022-09-27T07:22:17.996Z,11.17
2022-09-27T07:22:53.184Z,11.11
2022-09-27T07:23:28.584Z,11.16
2022-09-27T07:24:04.031Z,11.20
2022-09-27T07:24:39.119Z,11.21
2022-09-27T07:25:14.149Z,11.17
2022-09-27T07:25:49.463Z,11.19
2022-09-27T07:26:24.778Z,11.16
2022-09-27T07:26:59.899Z,11.11
2022-09-27T07:27:38.140Z,11.11
2022-09-27T07:28:10.421Z,11.09
2022-09-27T07:28:45.403Z,11.13
2022-09-27T07:29:20.836Z,11.03
2022-09-27T07:29:55.961Z,11.14
2022-09-27T07:30:31.296Z,11.19
2022-09-27T07:31:06.628Z,11.14
2022-09-27T07:31:41.961Z,11.21
2022-09-27T07:32:17.563Z,11.16
2022-09-27T07:32:52.658Z,11.21
2022-09-27T07:33:28.389Z,11.27
2022-09-27T07:34:03.502Z,11.21
2022-09-27T07:34:38.717Z,11.20
2022-09-27T07:35:14.034Z,11.17
2022-09-27T07:35:49.349Z,11.19
2022-09-27T07:36:24.666Z,11.17
2022-09-27T07:36:59.686Z,11.17
2022-09-27T07:37:34.785Z,11.21
2022-09-27T07:38:10.017Z,11.24